• Join FlightAware (Why Join?)
  • Login
  • US Flag 
11:08AM EDT


 

Airport Tracker/Info


-or-


 

Live Flight TrackerFlight Track Log ✈ N628GE ✈ 31-Jul-2013 ✈ KCDW - KMJX

Flight Track Log - Related Links

Times and Time Zones

All times are in EDT time to prevent confusion due to time zone crossing. See the N628GE flight status page for this flight to view local times or setup timezone preferences in your user account.

Time Position Orientation Groundspeed Altitude Reporting Facility
EDT Latitude Longitude Course Direction KTS MPH feet Rate Location/Type
11:09AM 40.8333 -74.2833 180° South 99 114 2,000  Level New York TRACON
11:10AM 40.8000 -74.2833 180° South 97 112 2,800 780 Climbing New York TRACON
11:11AM 40.7833 -74.2667 143° Southeast 98 113 3,600 840 Climbing New York TRACON
11:12AM 40.7500 -74.2667 180° South 107 123 4,500 660 Climbing New York TRACON
11:13AM 40.7167 -74.2500 159° South 113 130 5,000 240 Climbing New York TRACON
11:14AM 40.6833 -74.2500 180° South 150 173 5,000  Level New York TRACON
11:15AM 40.6333 -74.2500 180° South 149 171 5,000  Level New York TRACON
11:16AM 40.6000 -74.2833 217° Southwest 142 163 5,000  Level New York TRACON
11:17AM 40.5667 -74.2833 180° South 148 170 5,000  Level New York TRACON
11:19AM 40.5152 -74.2576 159° South  Level FlightAware Approximate
11:26AM 40.2729 -74.1500 180° South  Level FlightAware Approximate
11:27AM 40.2362 -74.1500 180° South  Level FlightAware Approximate
11:28AM 40.1994 -74.1500 180° South  Level FlightAware Approximate
11:29AM 40.1626 -74.1500 180° South  Level FlightAware Approximate
11:30AM 40.1259 -74.1500 180° South  Level FlightAware Approximate
11:31AM 40.0891 -74.1500 180° South  Level FlightAware Approximate
11:32AM 40.0609 -74.1780 224° Southwest  Level FlightAware Approximate
11:33AM 40.0344 -74.2112 224° Southwest  Level FlightAware Approximate
11:34AM 40.0069 -74.2431 217° Southwest  Level FlightAware Approximate
11:35AM 39.9738 -74.2631 201° Southwest  Level FlightAware Approximate
11:36AM 39.9436 -74.2898 217° Southwest  Level FlightAware Approximate
11:37AM 39.9275 -74.2924 218° Southwest  Level Estimated
11:38AM 39.9275 -74.2924 222° Southwest  Level Estimated
11:39AM 39.9275 -74.2924 222° Southwest  Level Estimated